ジョン・F・ケネディ国際空港の過去48時間の天気

ジョン・F・ケネディ国際空港 (New York, Kennedy International Airport)

現在時刻: 5/24 22:52 EDT (5/25 02:52 UTC) 以下の時間は現地時間です。

過去48時間のMETAR気象情報
時間 風向 風速(m/s) 視程 気温(℃) 湿度(%) 気圧(hPa) 天気現象
24 21:51 南南西 6 10km以上 18.3 63 1019.4
24 20:51 8 10km以上 18.3 61 1018.9
24 19:51 8 10km以上 20 43 1018.6
24 18:51 7 10km以上 21.1 46 1018.6
24 17:51 7 10km以上 22.2 46 1018.6
24 16:51 5 10km以上 25 30 1019
24 15:51 5 10km以上 25.6 35 1019.4
24 15:23 南南西 5 10km以上 25.6 32 1020
24 14:51 不定 2 10km以上 27.8 20 1019.6
24 13:51 3 10km以上 26.7 21 1019.9
24 12:51 4 10km以上 26.1 21 1020.2
24 11:51 4 10km以上 25 24 1020.5
24 10:51 7 10km以上 24.4 23 1020.6
24 09:51 7 10km以上 23.3 29 1020.4
24 08:51 5 10km以上 22.8 39 1020.4
24 07:51 5 10km以上 21.1 55 1020
24 06:51 北北西 4 10km以上 19.4 63 1019.3
24 05:51 北北西 5 10km以上 18.3 65 1018.3
24 04:51 北西 5 10km以上 18.9 61 1017.4
24 03:51 北西 4 10km以上 19.4 57 1017.1
24 02:51 北西 5 10km以上 20.6 51 1016.9
24 01:51 北西 4 10km以上 20.6 53 1016.6
24 00:51 北北西 5 10km以上 21.7 47 1016.5
23 23:51 北西 4 10km以上 23.3 43 1016.2
23 22:51 西北西 5 10km以上 23.9 41 1015.8
23 21:51 西北西 5 10km以上 24.4 42 1015.6
23 20:51 西北西 4 10km以上 25.6 37 1015
23 19:51 西 4 10km以上 25.6 40 1014.4
23 18:51 西北西 5 10km以上 26.7 39 1013.8
23 17:51 北西 5 10km以上 27.2 37 1013.6
23 16:51 北北東 7 10km以上 27.8 33 1013.5
23 15:51 北北西 6 10km以上 26.7 41 1013.6
23 14:51 6 10km以上 25.6 48 1013.8
23 13:51 北北西 7 10km以上 24.4 60 1014
23 12:51 7 10km以上 22.8 68 1014
23 11:51 6 10km以上 22.8 71 1014.1
23 10:51 不定 2 10km以上 20.6 84 1013.8
23 09:51 不定 2 8,050m 18.3 93 1013.7 もや
23 08:51 南南西 2 8,050m 17.2 97 1013.7 もや
23 07:51 南西 3 6,450m 16.1 100 1013.3 もや
23 07:43 南南西 3 6,450m 16.1 100 1013 もや
23 07:06 西 2 8,050m 15.6 100 1013 もや
23 06:51 南西 3 8,050m 15 100 1012.9 もや
23 06:02 静穏 0 10km以上 15 96 1013 弱い雨
23 05:51 静穏 0 8,050m 15 100 1012.5 もや
23 05:15 3 10km以上 14.4 100 1013 弱い雨 もや
23 04:51 南南西 4 6,450m 14.4 100 1012.6 雷雨 もや
23 04:45 南西 5 6,450m 14 100 1014 雷雨 もや
23 04:16 5 10km以上 14.4 100 1013 弱い雷雨 もや
23 04:05 4 10km以上 14.4 100 1013 周辺で雷 雨 もや
23 03:51 3 10km以上 14.4 100 1013 弱い雨
23 02:51 南西 3 10km以上 14.4 97 1013.7
23 01:51 静穏 0 10km以上 14.4 100 1013.9
23 00:51 静穏 0 10km以上 14.4 97 1014.3
22 23:51 静穏 0 10km以上 14.4 97 1014.8
KJFK 250151Z 20011KT 10SM CLR 18/11 A3011 RMK AO2 SLP194 T01830111
KJFK 250051Z 19016KT 10SM CLR 18/11 A3009 RMK AO2 SLP189 T01830106
KJFK 242351Z 18016G24KT 10SM CLR 20/07 A3008 RMK AO2 SLP186 T02000072 10278 20200 56004
KJFK 242251Z 18013KT 10SM CLR 21/09 A3008 RMK AO2 SLP186 T02110089
KJFK 242151Z 18014KT 10SM CLR 22/10 A3008 RMK AO2 SLP186 T02220100
KJFK 242051Z 19010KT 10SM FEW250 25/06 A3009 RMK AO2 SLP190 T02500061 58008
KJFK 241951Z 19010KT 10SM FEW250 26/09 A3010 RMK AO2 WSHFT 1903 SLP194 T02560089
KJFK 241923Z 20010KT 10SM FEW250 26/08 A3011 RMK AO2 WSHFT 1903 T02560078
KJFK 241851Z VRB03KT 10SM FEW250 28/03 A3011 RMK AO2 SLP196 T02780028
KJFK 241751Z VRB05KT 10SM FEW250 27/03 A3012 RMK AO2 SLP199 T02670028 10272 20211 58007
KJFK 241651Z 01008KT 10SM FEW250 26/02 A3013 RMK AO2 SLP202 T02610022
KJFK 241551Z 36008G17KT 10SM FEW250 25/03 A3014 RMK AO2 SLP205 T02500028
KJFK 241451Z 01014KT 10SM FEW250 24/02 A3014 RMK AO2 SLP206 T02440017 51006
KJFK 241351Z COR 36014KT 10SM FEW250 23/04 A3013 RMK AO2 SLP204 T02330044
KJFK 241251Z 36009KT 10SM FEW250 23/08 A3013 RMK AO2 SLP204 T02280083
KJFK 241151Z 35010KT 10SM FEW250 21/12 A3012 RMK AO2 SLP200 T02110117 10211 20183 51025
KJFK 241051Z 33008KT 10SM FEW250 19/12 A3010 RMK AO2 SLP193 T01940122
KJFK 240951Z 34010KT 10SM FEW250 18/12 A3007 RMK AO2 SLP183 T01830117
KJFK 240851Z 32009KT 10SM CLR 19/11 A3005 RMK AO2 SLP174 T01890111 53008
KJFK 240751Z 32008KT 10SM CLR 19/11 A3004 RMK AO2 SLP171 T01940106
KJFK 240651Z 32010KT 10SM CLR 21/10 A3003 RMK AO2 SLP169 T02060100
KJFK 240551Z 32008KT 10SM CLR 21/11 A3002 RMK AO2 SLP166 T02060106 10261 20206 51008
KJFK 240451Z 33009KT 10SM FEW250 22/10 A3002 RMK AO2 SLP165 T02170100 402780139
KJFK 240351Z 31007KT 10SM FEW250 23/10 A3001 RMK AO2 SLP162 T02330100
KJFK 240251Z 29009KT 10SM SCT250 24/10 A3000 RMK AO2 SLP158 T02390100 51015
KJFK 240151Z 29009KT 10SM SCT250 24/11 A2999 RMK AO2 SLP156 T02440106
KJFK 240051Z 30008KT 10SM SCT250 26/10 A2998 RMK AO2 SLP150 T02560100
KJFK 232351Z 27007KT 10SM FEW070 SCT250 26/11 A2996 RMK AO2 SLP144 T02560111 10278 20244 53009
KJFK 232251Z 30010KT 10SM FEW070 FEW250 27/12 A2994 RMK AO2 SLP138 T02670117
KJFK 232151Z 32009KT 10SM FEW060 SCT250 27/11 A2993 RMK AO2 SLP136 T02720111
KJFK 232051Z 02014KT 10SM FEW055 SCT250 28/10 A2993 RMK AO2 SLP135 T02780100 56006
KJFK 231951Z 34012KT 10SM FEW050 SCT250 27/12 A2993 RMK AO2 SLP136 T02670122
KJFK 231851Z 36011KT 10SM FEW036 FEW050 SCT250 26/14 A2994 RMK AO2 SLP138 T02560139
KJFK 231751Z 33014G19KT 10SM FEW033 SCT048 SCT250 24/16 A2995 RMK AO2 SLP140 T02440161 10244 20161 51002
KJFK 231651Z 35013KT 10SM FEW027 BKN034 BKN050 23/17 A2995 RMK AO2 SLP140 T02280167
KJFK 231551Z 35011KT 10SM SCT024 BKN034 BKN065 23/17 A2995 RMK AO2 SLP141 T02280172
KJFK 231451Z VRB04KT 7SM SCT025 SCT060 21/18 A2994 RMK AO2 SLP138 T02060178 51005
KJFK 231351Z VRB04KT 5SM BR FEW005 FEW020 BKN035 BKN130 18/17 A2994 RMK AO2 SLP137 VIS SE 2 1/2 T01830172
KJFK 231251Z 21004KT 5SM BR FEW006 SCT060 BKN130 BKN250 17/17 A2994 RMK AO2 SLP137 VIS SE-S 2 1/2 T01720167
KJFK 231151Z 22006KT 4SM BR SCT006 BKN060 BKN100 BKN250 16/16 A2993 RMK AO2 SLP133 VIS SE-S 2 1/2 SCT V BKN 60020 70037 T01610161 10161 20139 53008
KJFK 231143Z 21005KT 4SM BR SCT006 BKN060 BKN100 BKN250 16/16 A2992 RMK AO2 T01610161
KJFK 231106Z 26004KT 5SM BR BKN006 BKN100 BKN250 16/16 A2992 RMK AO2 T01560156
KJFK 231051Z 22005KT 5SM BR SCT006 BKN100 BKN250 15/15 A2991 RMK AO2 RAB0956E18 SLP129 P0000 T01500150
KJFK 231002Z 00000KT 7SM -RA OVC005 15/14 A2991 RMK AO2 RAB0956 P0000 T01500144
KJFK 230951Z 00000KT 5SM BR OVC004 15/15 A2990 RMK AO2 RAE33 TSE14 SLP125 P0003 T01500150
KJFK 230915Z 01006KT 6SM -RA BR BKN004 OVC100 14/14 A2990 RMK AO2 LTG DSNT E AND SE TSE14 P0003 T01440144
KJFK 230851Z 20007KT 4SM TSRA BR BKN004 BKN038CB OVC100 14/14 A2990 RMK AO2 LTG DSNT SE TSE0759B16 SLP126 OCNL LTGIC OHD-SE TS OHD-SE MOV SE P0017 60017 T01440144 58014
KJFK 230845Z 22009KT 4SM TSRA BR BKN004 OVC040CB 14/14 A2993 RMK AO2 LTG DSNT SE TSE0759B16 OCNL LTGIC OHD-SE TS OHD-SE MOV SE P0015
KJFK 230816Z 18009KT 6SM -TSRA BR SCT006 BKN050CB OVC095 14/14 A2991 RMK AO2 TSE0759B16 OCNL LTGICCA OHD-S TS OHD-S MOV SE P0006 T01440144
KJFK 230805Z 18008KT 6SM VCTS RA BR BKN007 BKN050 OVC090 14/14 A2992 RMK AO2 TSE0759 OCNL LTGIC DSNT SW CB DSNT SW MOV SE P0003 T01440144
KJFK 230751Z 19005KT 10SM -RA OVC007 14/14 A2992 RMK AO2 LTG DSNT SW RAB0658E21B46 SLP130 P0000 T01440144
KJFK 230651Z 23005KT 10SM BKN007 OVC014 14/14 A2994 RMK AO2 SLP137 T01440139
KJFK 230551Z 00000KT 10SM BKN007 OVC014 14/14 A2994 RMK AO2 SLP139 60001 T01440144 10144 20139 56019
KJFK 230451Z 00000KT 10SM OVC009 14/14 A2995 RMK AO2 SLP143 T01440139 401830133
KJFK 230351Z 00000KT 10SM OVC008 14/14 A2997 RMK AO2 SLP148 T01440139